createdAt,value
2018-08-25T00:00:57.747Z,1001.81
2018-08-25T00:01:57.727Z,1001.85
2018-08-25T00:02:57.721Z,1001.83
2018-08-25T00:03:57.728Z,1001.83
2018-08-25T00:04:57.736Z,1001.82
2018-08-25T00:05:57.728Z,1001.83
2018-08-25T00:06:57.733Z,1001.83
2018-08-25T00:07:57.739Z,1001.82
2018-08-25T00:08:57.736Z,1001.78
2018-08-25T00:09:57.768Z,1001.80
2018-08-25T00:10:57.736Z,1001.75
2018-08-25T00:11:57.732Z,1001.72
2018-08-25T00:12:57.728Z,1001.75
2018-08-25T00:13:57.738Z,1001.67
2018-08-25T00:14:57.739Z,1001.71
2018-08-25T00:15:57.740Z,1001.68
2018-08-25T00:16:57.737Z,1001.68
2018-08-25T00:17:57.735Z,1001.64
2018-08-25T00:18:57.735Z,1001.64
2018-08-25T00:19:57.733Z,1001.61
2018-08-25T00:20:57.739Z,1001.56
2018-08-25T00:21:57.787Z,1001.56
2018-08-25T00:22:57.745Z,1001.54
2018-08-25T00:23:57.745Z,1001.55
2018-08-25T00:24:57.748Z,1001.56
2018-08-25T00:25:57.787Z,1001.47
2018-08-25T00:26:57.751Z,1001.44
2018-08-25T00:28:06.392Z,1001.42
2018-08-25T00:29:51.167Z,1001.41
2018-08-25T00:30:51.142Z,1001.40
2018-08-25T00:31:51.140Z,1001.38
2018-08-25T00:32:51.145Z,1001.36
2018-08-25T00:33:51.143Z,1001.37
2018-08-25T00:34:59.844Z,1001.37
2018-08-25T00:36:44.547Z,1001.42
2018-08-25T00:37:44.538Z,1001.43
2018-08-25T00:38:44.534Z,1001.48
2018-08-25T00:39:44.539Z,1001.46
2018-08-25T00:40:44.546Z,1001.50
2018-08-25T00:41:44.538Z,1001.51
2018-08-25T00:42:44.542Z,1001.52
2018-08-25T00:43:44.550Z,1001.46
2018-08-25T00:44:44.534Z,1001.49
2018-08-25T00:45:44.547Z,1001.46
2018-08-25T00:46:44.541Z,1001.49
2018-08-25T00:47:44.604Z,1001.46
2018-08-25T00:48:44.546Z,1001.48
2018-08-25T00:49:44.544Z,1001.46
2018-08-25T00:50:44.536Z,1001.41
2018-08-25T00:51:44.549Z,1001.36
2018-08-25T00:52:44.542Z,1001.39
2018-08-25T00:53:44.550Z,1001.42
2018-08-25T00:54:44.543Z,1001.38
2018-08-25T00:55:44.546Z,1001.42
2018-08-25T00:56:44.549Z,1001.40
2018-08-25T00:57:44.544Z,1001.38
2018-08-25T00:58:44.557Z,1001.41
2018-08-25T00:59:44.557Z,1001.41
2018-08-25T01:00:44.548Z,1001.39
2018-08-25T01:01:44.552Z,1001.39
2018-08-25T01:02:44.552Z,1001.41
2018-08-25T01:03:44.559Z,1001.43
2018-08-25T01:04:44.556Z,1001.42
2018-08-25T01:05:44.561Z,1001.47
2018-08-25T01:06:44.574Z,1001.50
2018-08-25T01:07:44.552Z,1001.53
2018-08-25T01:08:44.560Z,1001.51
2018-08-25T01:09:44.559Z,1001.55
2018-08-25T01:10:44.571Z,1001.54
2018-08-25T01:11:44.559Z,1001.57
2018-08-25T01:12:44.583Z,1001.60
2018-08-25T01:13:44.560Z,1001.57
2018-08-25T01:14:44.563Z,1001.57
2018-08-25T01:15:44.644Z,1001.58
2018-08-25T01:16:44.561Z,1001.56
2018-08-25T01:17:44.571Z,1001.58
2018-08-25T01:18:44.566Z,1001.61
2018-08-25T01:19:44.579Z,1001.59
2018-08-25T01:20:44.573Z,1001.55
2018-08-25T01:21:44.591Z,1001.55
2018-08-25T01:22:44.573Z,1001.55
2018-08-25T01:23:44.590Z,1001.51
2018-08-25T01:24:44.571Z,1001.50
2018-08-25T01:25:44.570Z,1001.46
2018-08-25T01:26:44.578Z,1001.40
2018-08-25T01:27:44.579Z,1001.40
2018-08-25T01:28:44.578Z,1001.39
2018-08-25T01:29:44.580Z,1001.42
2018-08-25T01:30:44.590Z,1001.42
2018-08-25T01:31:44.575Z,1001.43
2018-08-25T01:32:44.584Z,1001.43
2018-08-25T01:33:44.580Z,1001.44
2018-08-25T01:34:44.597Z,1001.42
2018-08-25T01:35:44.581Z,1001.45
2018-08-25T01:36:44.580Z,1001.41
2018-08-25T01:37:44.585Z,1001.42
2018-08-25T01:38:44.588Z,1001.43
2018-08-25T01:39:44.590Z,1001.41
2018-08-25T01:40:44.592Z,1001.53
2018-08-25T01:41:44.592Z,1001.45
2018-08-25T01:42:44.595Z,1001.47
2018-08-25T01:43:44.591Z,1001.45
2018-08-25T01:44:44.592Z,1001.44
2018-08-25T01:45:44.589Z,1001.43
2018-08-25T01:46:44.586Z,1001.46
2018-08-25T01:47:44.591Z,1001.45
2018-08-25T01:48:44.596Z,1001.42
2018-08-25T01:49:44.593Z,1001.42
2018-08-25T01:50:44.597Z,1001.41
2018-08-25T01:51:44.599Z,1001.38
2018-08-25T01:52:44.591Z,1001.37
2018-08-25T01:53:44.596Z,1001.35
2018-08-25T01:54:44.598Z,1001.35
2018-08-25T01:55:44.602Z,1001.35
2018-08-25T01:56:44.631Z,1001.32
2018-08-25T01:57:44.612Z,1001.28
2018-08-25T01:58:44.609Z,1001.32
2018-08-25T01:59:44.621Z,1001.33
2018-08-25T02:00:44.620Z,1001.30
2018-08-25T02:01:44.610Z,1001.34
2018-08-25T02:02:44.644Z,1001.31
2018-08-25T02:03:44.608Z,1001.28
2018-08-25T02:04:44.610Z,1001.30
2018-08-25T02:05:44.618Z,1001.32
2018-08-25T02:06:44.605Z,1001.29
2018-08-25T02:07:44.624Z,1001.25
2018-08-25T02:08:44.609Z,1001.25
2018-08-25T02:09:44.619Z,1001.21
2018-08-25T02:10:44.608Z,1001.20
2018-08-25T02:11:44.606Z,1001.19
2018-08-25T02:12:44.621Z,1001.20
2018-08-25T02:13:44.610Z,1001.18
2018-08-25T02:14:44.617Z,1001.15
2018-08-25T02:15:44.619Z,1001.16
2018-08-25T02:16:44.613Z,1001.14
2018-08-25T02:17:44.621Z,1001.11
2018-08-25T02:18:44.619Z,1001.07
2018-08-25T02:19:44.635Z,1001.03
2018-08-25T02:20:44.632Z,1001.02
2018-08-25T02:21:44.620Z,1000.99
2018-08-25T02:22:44.622Z,1001.00
2018-08-25T02:23:44.638Z,1000.97
2018-08-25T02:24:44.624Z,1000.96
2018-08-25T02:25:44.627Z,1000.92
2018-08-25T02:26:44.622Z,1000.97
2018-08-25T02:27:44.628Z,1000.92
2018-08-25T02:28:44.627Z,1000.90
2018-08-25T02:29:44.621Z,1000.90
2018-08-25T02:30:44.640Z,1000.88
2018-08-25T02:31:44.631Z,1000.82
2018-08-25T02:32:44.626Z,1000.84
2018-08-25T02:33:44.628Z,1000.89
2018-08-25T02:34:44.623Z,1000.85
2018-08-25T02:35:44.638Z,1000.88
2018-08-25T02:36:44.632Z,1000.90
2018-08-25T02:37:44.637Z,1000.92
2018-08-25T02:38:44.667Z,1000.97
2018-08-25T02:39:44.632Z,1000.98
2018-08-25T02:40:44.635Z,1000.97
2018-08-25T02:41:44.636Z,1000.95
2018-08-25T02:42:44.632Z,1000.94
2018-08-25T02:43:44.633Z,1000.92
2018-08-25T02:44:44.648Z,1000.94
2018-08-25T02:45:44.636Z,1000.93
2018-08-25T02:46:44.646Z,1000.92
2018-08-25T02:47:44.669Z,1000.97
2018-08-25T02:48:44.640Z,1000.96
2018-08-25T02:49:44.637Z,1000.98
2018-08-25T02:50:44.640Z,1000.99
2018-08-25T02:51:44.641Z,1000.99
2018-08-25T02:52:44.645Z,1000.98
2018-08-25T02:53:44.644Z,1000.96
2018-08-25T02:54:44.641Z,1000.90
2018-08-25T02:55:44.702Z,1000.89
2018-08-25T02:56:44.664Z,1000.90
2018-08-25T02:57:44.643Z,1000.89
2018-08-25T02:58:44.653Z,1000.91
2018-08-25T02:59:44.649Z,1000.92
2018-08-25T03:15:27.677Z,1000.81
2018-08-25T03:16:27.665Z,1000.77
2018-08-25T03:17:27.677Z,1000.73
2018-08-25T03:18:27.656Z,1000.73
2018-08-25T03:19:27.651Z,1000.68
2018-08-25T03:20:27.650Z,1000.67
2018-08-25T03:21:27.653Z,1000.71
2018-08-25T03:22:27.644Z,1000.60
2018-08-25T03:23:27.651Z,1000.64
2018-08-25T03:24:27.641Z,1000.62
2018-08-25T03:25:27.639Z,1000.66
2018-08-25T03:26:27.635Z,1000.63
2018-08-25T03:27:27.638Z,1000.64
2018-08-25T03:28:27.632Z,1000.65
2018-08-25T03:29:27.634Z,1000.64
2018-08-25T03:30:27.641Z,1000.55
2018-08-25T03:31:27.665Z,1000.54
2018-08-25T03:32:27.631Z,1000.57
2018-08-25T03:33:27.631Z,1000.50
2018-08-25T03:34:27.635Z,1000.52
2018-08-25T03:35:27.635Z,1000.45
2018-08-25T03:36:27.638Z,1000.50
2018-08-25T03:37:27.635Z,1000.47
2018-08-25T03:38:27.627Z,1000.50
2018-08-25T03:39:27.636Z,1000.48
2018-08-25T03:40:27.634Z,1000.49
2018-08-25T03:41:27.630Z,1000.47
2018-08-25T03:42:27.632Z,1000.45
2018-08-25T03:43:27.631Z,1000.49
2018-08-25T03:44:27.637Z,1000.46
2018-08-25T03:45:27.642Z,1000.40
2018-08-25T03:46:27.635Z,1000.43
2018-08-25T03:47:27.632Z,1000.39
2018-08-25T03:48:27.637Z,1000.39
2018-08-25T03:49:27.639Z,1000.40
2018-08-25T03:50:27.631Z,1000.39
2018-08-25T03:51:27.655Z,1000.39
2018-08-25T03:52:27.671Z,1000.41
2018-08-25T03:53:27.673Z,1000.43
2018-08-25T03:54:27.655Z,1000.39
2018-08-25T03:55:27.658Z,1000.36
2018-08-25T03:56:27.647Z,1000.35
2018-08-25T03:57:27.633Z,1000.36
2018-08-25T03:58:27.641Z,1000.37
2018-08-25T03:59:27.648Z,1000.40
2018-08-25T04:00:27.657Z,1000.36
2018-08-25T04:01:27.713Z,1000.36
2018-08-25T04:02:27.645Z,1000.35
2018-08-25T04:03:27.640Z,1000.35
2018-08-25T04:04:27.648Z,1000.33
2018-08-25T04:05:27.639Z,1000.35
2018-08-25T04:06:27.656Z,1000.32
2018-08-25T04:07:27.648Z,1000.27
2018-08-25T04:08:27.638Z,1000.29
2018-08-25T04:09:27.639Z,1000.28
2018-08-25T04:10:27.643Z,1000.25
2018-08-25T04:11:27.637Z,1000.26
2018-08-25T04:12:27.644Z,1000.22
2018-08-25T04:13:27.646Z,1000.25
2018-08-25T04:14:27.645Z,1000.25
2018-08-25T04:15:27.643Z,1000.24
2018-08-25T04:16:27.642Z,1000.23
2018-08-25T04:17:27.638Z,1000.19
2018-08-25T04:18:27.648Z,1000.17
2018-08-25T04:19:27.646Z,1000.15
2018-08-25T04:20:27.650Z,1000.17
2018-08-25T04:21:27.647Z,1000.13
2018-08-25T04:22:27.653Z,1000.16
2018-08-25T04:23:27.642Z,1000.15
2018-08-25T04:24:27.663Z,1000.17
2018-08-25T04:25:27.663Z,1000.16
2018-08-25T04:26:27.649Z,1000.17
2018-08-25T04:27:27.649Z,1000.18
2018-08-25T04:28:27.647Z,1000.16
2018-08-25T04:29:27.650Z,1000.20
2018-08-25T04:30:27.658Z,1000.16
2018-08-25T04:31:27.645Z,1000.18
2018-08-25T04:32:27.664Z,1000.18
2018-08-25T04:33:27.699Z,1000.19
2018-08-25T04:34:27.648Z,1000.21
2018-08-25T04:35:27.650Z,1000.20
2018-08-25T04:36:27.649Z,1000.24
2018-08-25T04:37:27.650Z,1000.20
2018-08-25T04:38:27.661Z,1000.18
2018-08-25T04:39:27.647Z,1000.18
2018-08-25T04:40:27.657Z,1000.21
2018-08-25T04:41:27.648Z,1000.23
2018-08-25T04:42:27.663Z,1000.21
2018-08-25T04:43:27.653Z,1000.22
2018-08-25T04:44:27.674Z,1000.25
2018-08-25T04:45:27.652Z,1000.21
2018-08-25T04:46:27.651Z,1000.16
2018-08-25T04:47:27.660Z,1000.21
2018-08-25T04:48:27.653Z,1000.24
2018-08-25T04:49:27.655Z,1000.23
2018-08-25T04:50:27.650Z,1000.27
2018-08-25T04:51:27.658Z,1000.26
2018-08-25T04:52:27.667Z,1000.36
2018-08-25T04:53:27.656Z,1000.31
2018-08-25T04:54:27.663Z,1000.29
2018-08-25T04:55:27.664Z,1000.27
2018-08-25T04:56:27.675Z,1000.25
2018-08-25T04:57:27.661Z,1000.22
2018-08-25T04:58:27.659Z,1000.24
2018-08-25T04:59:27.667Z,1000.22
2018-08-25T05:00:27.654Z,1000.25
2018-08-25T05:01:27.757Z,1000.21
2018-08-25T05:02:27.676Z,1000.25
2018-08-25T05:03:27.656Z,1000.25
2018-08-25T05:04:27.664Z,1000.26
2018-08-25T05:05:27.660Z,1000.21
2018-08-25T05:06:27.658Z,1000.17
2018-08-25T05:07:27.656Z,1000.17
2018-08-25T05:08:27.665Z,1000.15
2018-08-25T05:09:27.674Z,1000.17
2018-08-25T05:10:27.681Z,1000.16
2018-08-25T05:11:27.657Z,1000.14
2018-08-25T05:12:27.662Z,1000.13
2018-08-25T05:13:27.678Z,1000.14
2018-08-25T05:14:27.664Z,1000.11
2018-08-25T05:15:27.685Z,1000.11
2018-08-25T05:16:27.662Z,1000.09
2018-08-25T05:17:27.661Z,1000.08
2018-08-25T05:18:27.666Z,1000.08
2018-08-25T05:19:27.673Z,1000.07
2018-08-25T05:20:27.669Z,1000.03
2018-08-25T05:21:27.665Z,1000.05
2018-08-25T05:22:27.666Z,1000.07
2018-08-25T05:23:27.666Z,1000.03
2018-08-25T05:24:27.665Z,1000.06
2018-08-25T05:25:27.674Z,1000.10
2018-08-25T05:26:27.669Z,1000.06
2018-08-25T05:27:27.670Z,1000.09
2018-08-25T05:28:27.678Z,1000.09
2018-08-25T05:29:27.670Z,1000.08
2018-08-25T05:30:27.671Z,1000.08
2018-08-25T05:31:27.681Z,1000.07
2018-08-25T05:32:27.677Z,1000.13
2018-08-25T05:33:27.671Z,1000.12
2018-08-25T05:34:27.694Z,1000.09
2018-08-25T05:35:27.674Z,1000.14
2018-08-25T05:36:27.896Z,1000.11
2018-08-25T05:37:27.676Z,1000.07
2018-08-25T05:38:27.738Z,1000.13
2018-08-25T05:39:27.723Z,1000.09
2018-08-25T05:40:27.710Z,1000.09
2018-08-25T05:41:27.676Z,1000.14
2018-08-25T05:42:27.681Z,1000.14
2018-08-25T05:43:27.683Z,1000.04
2018-08-25T05:44:27.743Z,1000.11
2018-08-25T05:45:27.770Z,1000.07
2018-08-25T05:46:27.694Z,1000.07
2018-08-25T05:47:27.679Z,1000.11
2018-08-25T05:48:27.678Z,1000.06
2018-08-25T05:49:27.686Z,1000.07
2018-08-25T05:50:27.681Z,1000.07
2018-08-25T05:51:27.685Z,1000.05
2018-08-25T05:52:27.687Z,1000.04
2018-08-25T05:53:27.683Z,1000.10
2018-08-25T05:54:27.681Z,1000.07
2018-08-25T05:55:27.682Z,1000.08
2018-08-25T05:56:27.687Z,1000.10
2018-08-25T05:57:27.783Z,1000.12
2018-08-25T05:58:27.684Z,1000.06
2018-08-25T05:59:27.681Z,1000.09
2018-08-25T06:00:27.687Z,1000.11
2018-08-25T06:01:27.685Z,1000.08
2018-08-25T06:02:27.684Z,1000.07
2018-08-25T06:03:27.817Z,1000.12
2018-08-25T06:04:27.698Z,1000.07
2018-08-25T06:05:27.709Z,1000.11
2018-08-25T06:06:27.751Z,1000.12
2018-08-25T06:07:27.694Z,1000.13
2018-08-25T06:08:27.689Z,1000.19
2018-08-25T06:09:27.690Z,1000.16
2018-08-25T06:10:27.692Z,1000.18
2018-08-25T06:11:27.689Z,1000.16
2018-08-25T06:12:27.689Z,1000.14
2018-08-25T06:13:27.749Z,1000.16
2018-08-25T06:14:27.691Z,1000.13
2018-08-25T06:15:27.688Z,1000.13
2018-08-25T06:16:27.692Z,1000.15
2018-08-25T06:17:27.691Z,1000.14
2018-08-25T06:18:27.686Z,1000.13
2018-08-25T06:19:27.695Z,1000.21
2018-08-25T06:20:27.826Z,1000.19
2018-08-25T06:21:27.733Z,1000.18
2018-08-25T06:22:27.727Z,1000.17
2018-08-25T06:23:27.692Z,1000.23
2018-08-25T06:24:27.724Z,1000.18
2018-08-25T06:25:27.698Z,1000.22
2018-08-25T06:26:27.737Z,1000.21
2018-08-25T06:27:27.693Z,1000.19
2018-08-25T06:28:27.780Z,1000.25
2018-08-25T06:29:27.706Z,1000.22
2018-08-25T06:30:27.721Z,1000.26
2018-08-25T06:31:27.708Z,1000.31
2018-08-25T06:32:27.730Z,1000.32
2018-08-25T06:33:27.734Z,1000.32
2018-08-25T06:34:27.732Z,1000.33
2018-08-25T06:35:27.779Z,1000.30
2018-08-25T06:36:27.781Z,1000.31
2018-08-25T06:37:27.807Z,1000.30
2018-08-25T06:38:27.750Z,1000.33
2018-08-25T06:39:27.735Z,1000.31
2018-08-25T06:40:27.763Z,1000.36
2018-08-25T06:41:27.724Z,1000.35
2018-08-25T06:42:27.763Z,1000.37
2018-08-25T06:43:27.701Z,1000.34
2018-08-25T06:44:27.725Z,1000.36
2018-08-25T06:45:27.745Z,1000.39
2018-08-25T06:46:27.738Z,1000.41
2018-08-25T06:47:27.740Z,1000.41
2018-08-25T06:48:28.344Z,1000.44
2018-08-25T06:49:27.749Z,1000.47
2018-08-25T06:50:27.803Z,1000.46
2018-08-25T06:51:27.724Z,1000.49
2018-08-25T06:52:27.747Z,1000.43
2018-08-25T06:53:27.762Z,1000.41
2018-08-25T06:54:27.713Z,1000.46
2018-08-25T06:55:27.771Z,1000.45
2018-08-25T06:56:27.868Z,1000.40
2018-08-25T06:57:27.795Z,1000.48
2018-08-25T06:58:27.707Z,1000.52
2018-08-25T06:59:27.799Z,1000.50
2018-08-25T07:00:27.780Z,1000.57
2018-08-25T07:01:27.730Z,1000.55
2018-08-25T07:02:27.806Z,1000.51
2018-08-25T07:03:27.747Z,1000.56
2018-08-25T07:04:27.758Z,1000.63
2018-08-25T07:05:27.932Z,1000.58
2018-08-25T07:06:27.770Z,1000.63
2018-08-25T07:07:27.826Z,1000.62
2018-08-25T07:08:27.725Z,1000.66
2018-08-25T07:09:27.731Z,1000.67
2018-08-25T07:10:27.737Z,1000.66
2018-08-25T07:11:27.877Z,1000.65
2018-08-25T07:12:27.890Z,1000.69
2018-08-25T07:13:27.712Z,1000.70
2018-08-25T07:14:27.719Z,1000.70
2018-08-25T07:15:27.722Z,1000.70
2018-08-25T07:16:27.713Z,1000.68
2018-08-25T07:17:27.713Z,1000.67
2018-08-25T07:18:27.717Z,1000.72
2018-08-25T07:19:27.741Z,1000.67
2018-08-25T07:20:27.729Z,1000.71
2018-08-25T07:21:27.737Z,1000.72
2018-08-25T07:22:27.775Z,1000.69
2018-08-25T07:23:27.732Z,1000.75
2018-08-25T07:24:27.720Z,1000.77
2018-08-25T07:25:27.778Z,1000.73
2018-08-25T07:26:27.795Z,1000.75
2018-08-25T07:27:27.725Z,1000.78
2018-08-25T07:28:27.730Z,1000.76
2018-08-25T07:29:27.751Z,1000.73
2018-08-25T07:30:27.729Z,1000.76
2018-08-25T07:31:27.733Z,1000.73
2018-08-25T07:32:27.758Z,1000.76
2018-08-25T07:33:27.784Z,1000.77
2018-08-25T07:34:27.744Z,1000.83
2018-08-25T07:35:27.732Z,1000.80
2018-08-25T07:36:27.730Z,1000.82
2018-08-25T07:37:27.750Z,1000.78
2018-08-25T07:38:27.823Z,1000.80
2018-08-25T07:39:27.747Z,1000.82
2018-08-25T07:40:27.771Z,1000.84
2018-08-25T07:41:27.726Z,1000.86
2018-08-25T07:42:27.734Z,1000.85
2018-08-25T07:43:27.781Z,1000.87
2018-08-25T07:44:27.733Z,1000.88
2018-08-25T07:45:27.762Z,1000.90
2018-08-25T07:46:27.778Z,1000.92
2018-08-25T07:47:27.832Z,1000.94
2018-08-25T07:48:27.819Z,1000.97
2018-08-25T07:49:27.800Z,1000.97
2018-08-25T07:50:27.732Z,1000.94
2018-08-25T07:51:27.802Z,1001.00
2018-08-25T07:52:27.771Z,1001.02
2018-08-25T07:53:27.729Z,1001.06
2018-08-25T07:54:27.737Z,1001.05
2018-08-25T07:55:27.732Z,1001.06
2018-08-25T07:56:27.735Z,1001.09
2018-08-25T07:57:27.738Z,1001.06
2018-08-25T07:58:27.773Z,1001.10
2018-08-25T07:59:27.739Z,1001.08
2018-08-25T08:00:27.741Z,1001.15
2018-08-25T08:01:27.761Z,1001.04
2018-08-25T08:02:27.734Z,1001.13
2018-08-25T08:03:27.738Z,1001.07
2018-08-25T08:04:27.738Z,1001.07
2018-08-25T08:05:27.745Z,1001.09
2018-08-25T08:06:27.741Z,1001.12
2018-08-25T08:07:27.742Z,1001.09
2018-08-25T08:08:27.745Z,1001.18
2018-08-25T08:09:27.746Z,1001.21
2018-08-25T08:10:27.747Z,1001.23
2018-08-25T08:11:27.739Z,1001.22
2018-08-25T08:12:27.739Z,1001.21
2018-08-25T08:13:27.746Z,1001.22
2018-08-25T08:14:27.742Z,1001.22
2018-08-25T08:15:27.746Z,1001.20
2018-08-25T08:16:27.741Z,1001.23
2018-08-25T08:17:27.743Z,1001.26
2018-08-25T08:18:27.745Z,1001.21
2018-08-25T08:19:27.743Z,1001.25
2018-08-25T08:20:27.740Z,1001.29
2018-08-25T08:21:27.743Z,1001.23
2018-08-25T08:22:27.748Z,1001.25
2018-08-25T08:23:27.740Z,1001.24
2018-08-25T08:24:27.756Z,1001.20
2018-08-25T08:25:27.749Z,1001.21
2018-08-25T08:26:27.753Z,1001.23
2018-08-25T08:27:27.746Z,1001.24
2018-08-25T08:28:27.793Z,1001.28
2018-08-25T08:29:27.745Z,1001.30
2018-08-25T08:30:27.749Z,1001.34
2018-08-25T08:31:27.741Z,1001.38
2018-08-25T08:32:27.744Z,1001.34
2018-08-25T08:33:27.753Z,1001.31
2018-08-25T08:34:27.760Z,1001.35
2018-08-25T08:35:27.760Z,1001.30
2018-08-25T08:36:27.746Z,1001.36
2018-08-25T08:37:27.752Z,1001.35
2018-08-25T08:38:27.757Z,1001.37
2018-08-25T08:39:27.795Z,1001.34
2018-08-25T08:40:27.744Z,1001.38
2018-08-25T08:41:27.751Z,1001.32
2018-08-25T08:42:27.879Z,1001.37
2018-08-25T08:43:27.763Z,1001.39
2018-08-25T08:44:27.747Z,1001.36
2018-08-25T08:45:27.753Z,1001.39
2018-08-25T08:46:27.792Z,1001.41
2018-08-25T08:47:27.847Z,1001.43
2018-08-25T08:48:27.755Z,1001.47
2018-08-25T08:49:27.755Z,1001.45
2018-08-25T08:50:27.806Z,1001.42
2018-08-25T08:51:27.759Z,1001.46
2018-08-25T08:52:27.753Z,1001.46
2018-08-25T08:53:27.752Z,1001.45
2018-08-25T08:54:27.758Z,1001.48
2018-08-25T08:55:27.757Z,1001.46
2018-08-25T08:56:27.745Z,1001.49
2018-08-25T08:57:27.752Z,1001.51
2018-08-25T08:58:27.749Z,1001.52
2018-08-25T08:59:27.747Z,1001.41
2018-08-25T09:00:27.748Z,1001.53
2018-08-25T09:01:27.751Z,1001.52
2018-08-25T09:02:27.754Z,1001.55
2018-08-25T09:03:27.899Z,1001.58
2018-08-25T09:04:27.758Z,1001.51
2018-08-25T09:05:27.747Z,1001.54
2018-08-25T09:06:27.746Z,1001.54
2018-08-25T09:07:27.748Z,1001.60
2018-08-25T09:08:27.759Z,1001.58
2018-08-25T09:09:27.780Z,1001.61
2018-08-25T09:10:27.832Z,1001.59
2018-08-25T09:11:27.861Z,1001.62
2018-08-25T09:12:27.746Z,1001.61
2018-08-25T09:13:27.746Z,1001.64
2018-08-25T09:14:27.748Z,1001.55
2018-08-25T09:15:27.768Z,1001.57
2018-08-25T09:16:27.752Z,1001.60
2018-08-25T09:17:27.756Z,1001.67
2018-08-25T09:18:27.753Z,1001.64
2018-08-25T09:19:27.775Z,1001.62
2018-08-25T09:20:27.774Z,1001.65
2018-08-25T09:21:27.751Z,1001.64
2018-08-25T09:22:27.762Z,1001.64
2018-08-25T09:23:27.766Z,1001.62
2018-08-25T09:24:27.752Z,1001.62
2018-08-25T09:25:27.762Z,1001.61
2018-08-25T09:26:27.765Z,1001.61
2018-08-25T09:27:27.869Z,1001.67
2018-08-25T09:28:27.753Z,1001.67
2018-08-25T09:29:27.776Z,1001.67
2018-08-25T09:30:27.759Z,1001.66
2018-08-25T09:31:27.746Z,1001.71
2018-08-25T09:32:27.746Z,1001.67
2018-08-25T09:33:27.756Z,1001.63
2018-08-25T09:34:27.756Z,1001.67
2018-08-25T09:35:27.751Z,1001.64
2018-08-25T09:36:27.896Z,1001.66
2018-08-25T09:37:27.754Z,1001.66
2018-08-25T09:38:27.760Z,1001.67
2018-08-25T09:39:27.755Z,1001.61
2018-08-25T09:40:27.771Z,1001.61
2018-08-25T09:41:27.758Z,1001.62
2018-08-25T09:42:27.755Z,1001.58
2018-08-25T09:43:27.755Z,1001.63
2018-08-25T09:44:27.754Z,1001.65
2018-08-25T09:45:27.760Z,1001.59
2018-08-25T09:46:27.751Z,1001.61
2018-08-25T09:47:27.765Z,1001.56
2018-08-25T09:48:27.797Z,1001.67
2018-08-25T09:49:27.751Z,1001.70
2018-08-25T09:50:27.749Z,1001.66
2018-08-25T09:51:27.755Z,1001.63
2018-08-25T09:52:27.755Z,1001.60
2018-08-25T09:53:27.769Z,1001.68
2018-08-25T09:54:27.758Z,1001.65
2018-08-25T09:55:27.757Z,1001.66
2018-08-25T09:56:27.752Z,1001.65
2018-08-25T09:57:27.751Z,1001.67
2018-08-25T09:58:27.763Z,1001.68
2018-08-25T09:59:27.748Z,1001.66
2018-08-25T10:00:27.756Z,1001.68
2018-08-25T10:01:27.753Z,1001.68
2018-08-25T10:02:27.795Z,1001.65
2018-08-25T10:03:27.757Z,1001.66
2018-08-25T10:04:27.755Z,1001.68
2018-08-25T10:05:27.750Z,1001.70
2018-08-25T10:06:27.757Z,1001.64
2018-08-25T10:07:27.750Z,1001.70
2018-08-25T10:08:27.756Z,1001.69
2018-08-25T10:09:27.749Z,1001.74
2018-08-25T10:10:27.774Z,1001.73
2018-08-25T10:11:27.791Z,1001.69
2018-08-25T10:12:27.814Z,1001.79
2018-08-25T10:13:27.756Z,1001.78
2018-08-25T10:14:27.772Z,1001.73
2018-08-25T10:15:27.775Z,1001.76
2018-08-25T10:16:27.883Z,1001.75
2018-08-25T10:17:27.780Z,1001.82
2018-08-25T10:18:27.770Z,1001.77
2018-08-25T10:19:27.749Z,1001.76
2018-08-25T10:20:27.757Z,1001.75
2018-08-25T10:21:27.746Z,1001.76
2018-08-25T10:22:27.783Z,1001.83
2018-08-25T10:23:27.757Z,1001.76
2018-08-25T10:24:27.753Z,1001.79
2018-08-25T10:25:27.746Z,1001.79
2018-08-25T10:26:27.745Z,1001.79
2018-08-25T10:27:27.772Z,1001.82
2018-08-25T10:28:27.748Z,1001.80
2018-08-25T10:29:27.748Z,1001.77
2018-08-25T10:30:27.746Z,1001.78
2018-08-25T10:31:27.749Z,1001.80
2018-08-25T10:32:27.743Z,1001.83
2018-08-25T10:33:27.751Z,1001.83
2018-08-25T10:34:27.747Z,1001.83
2018-08-25T10:35:27.747Z,1001.81
2018-08-25T10:36:27.752Z,1001.80
2018-08-25T10:37:27.750Z,1001.81
2018-08-25T10:38:27.748Z,1001.80
2018-08-25T10:39:27.754Z,1001.79
2018-08-25T10:40:27.772Z,1001.82
2018-08-25T10:41:27.784Z,1001.79
2018-08-25T10:42:27.773Z,1001.80
2018-08-25T10:43:27.765Z,1001.80
2018-08-25T10:44:27.778Z,1001.80
2018-08-25T10:45:27.793Z,1001.81
2018-08-25T10:46:27.865Z,1001.80
2018-08-25T10:47:27.779Z,1001.76
2018-08-25T10:48:27.741Z,1001.73
2018-08-25T10:49:27.751Z,1001.71
2018-08-25T10:50:27.758Z,1001.69
2018-08-25T10:51:27.757Z,1001.68
2018-08-25T10:52:27.775Z,1001.71
2018-08-25T10:53:27.751Z,1001.72
2018-08-25T10:54:27.751Z,1001.72
2018-08-25T10:55:27.742Z,1001.75
2018-08-25T10:56:27.748Z,1001.69
2018-08-25T10:57:27.745Z,1001.70
2018-08-25T10:58:27.753Z,1001.67
2018-08-25T10:59:27.747Z,1001.73
2018-08-25T11:00:27.831Z,1001.68
2018-08-25T11:01:27.747Z,1001.68
2018-08-25T11:02:27.747Z,1001.69
2018-08-25T11:03:27.737Z,1001.66
2018-08-25T11:04:27.740Z,1001.68
2018-08-25T11:05:27.745Z,1001.69
2018-08-25T11:06:27.743Z,1001.63
2018-08-25T11:07:27.739Z,1001.60
2018-08-25T11:08:27.741Z,1001.61
2018-08-25T11:09:27.742Z,1001.58
2018-08-25T11:10:27.740Z,1001.56
2018-08-25T11:11:27.734Z,1001.58
2018-08-25T11:12:27.746Z,1001.58
2018-08-25T11:13:27.737Z,1001.55
2018-08-25T11:14:27.738Z,1001.50
2018-08-25T11:15:27.741Z,1001.52
2018-08-25T11:16:27.788Z,1001.56
2018-08-25T11:17:27.741Z,1001.51
2018-08-25T11:18:27.740Z,1001.57
2018-08-25T11:19:27.745Z,1001.57
2018-08-25T11:20:27.740Z,1001.52
2018-08-25T11:21:27.743Z,1001.49
2018-08-25T11:22:27.745Z,1001.50
2018-08-25T11:23:27.740Z,1001.53
2018-08-25T11:24:27.742Z,1001.50
2018-08-25T11:25:27.742Z,1001.49
2018-08-25T11:26:27.748Z,1001.56
2018-08-25T11:27:27.747Z,1001.52
2018-08-25T11:28:27.747Z,1001.52
2018-08-25T11:29:27.743Z,1001.57
2018-08-25T11:30:27.741Z,1001.51
2018-08-25T11:31:27.817Z,1001.56
2018-08-25T11:32:27.746Z,1001.61
2018-08-25T11:33:27.748Z,1001.59
2018-08-25T11:34:27.745Z,1001.52
2018-08-25T11:35:27.747Z,1001.58
2018-08-25T11:36:27.748Z,1001.57
2018-08-25T11:37:27.824Z,1001.55
2018-08-25T11:38:27.763Z,1001.59
2018-08-25T11:39:27.750Z,1001.62
2018-08-25T11:40:27.745Z,1001.59
2018-08-25T11:41:27.753Z,1001.57
2018-08-25T11:42:27.749Z,1001.62
2018-08-25T11:43:27.752Z,1001.65
2018-08-25T11:44:27.750Z,1001.63
2018-08-25T11:45:27.751Z,1001.56
2018-08-25T11:46:27.750Z,1001.57
2018-08-25T11:47:27.747Z,1001.60
2018-08-25T11:48:27.750Z,1001.55
2018-08-25T11:49:27.751Z,1001.55
2018-08-25T11:50:27.752Z,1001.58
2018-08-25T11:51:27.749Z,1001.58
2018-08-25T11:52:27.757Z,1001.65
2018-08-25T11:53:27.749Z,1001.62
2018-08-25T11:54:27.751Z,1001.67
2018-08-25T11:55:27.753Z,1001.61
2018-08-25T11:56:27.755Z,1001.57
2018-08-25T11:57:27.752Z,1001.53
2018-08-25T11:58:27.752Z,1001.57
2018-08-25T11:59:27.754Z,1001.57
2018-08-25T12:00:27.759Z,1001.55
2018-08-25T12:01:27.754Z,1001.55
2018-08-25T12:02:27.947Z,1001.54
2018-08-25T12:03:27.766Z,1001.58
2018-08-25T12:04:27.756Z,1001.58
2018-08-25T12:05:27.753Z,1001.55
2018-08-25T12:06:27.756Z,1001.54
2018-08-25T12:07:27.756Z,1001.56
2018-08-25T12:08:27.754Z,1001.59
2018-08-25T12:09:27.815Z,1001.61
2018-08-25T12:10:27.756Z,1001.61
2018-08-25T12:11:27.758Z,1001.62
2018-08-25T12:12:27.762Z,1001.61
2018-08-25T12:13:27.760Z,1001.57
2018-08-25T12:14:27.758Z,1001.58
2018-08-25T12:15:27.759Z,1001.57
2018-08-25T12:16:27.824Z,1001.59
2018-08-25T12:17:27.764Z,1001.61
2018-08-25T12:18:27.763Z,1001.53
2018-08-25T12:19:27.766Z,1001.52
2018-08-25T12:20:27.766Z,1001.49
2018-08-25T12:21:27.768Z,1001.51
2018-08-25T12:22:27.780Z,1001.51